createdAt,value
2022-08-28T00:04:57.235Z,16.30
2022-08-28T00:10:06.218Z,20.90
2022-08-28T00:15:17.872Z,19.70
2022-08-28T00:20:27.465Z,22.40
2022-08-28T00:25:36.035Z,15.60
2022-08-28T00:30:46.736Z,22.30
2022-08-28T00:35:55.839Z,21.50
2022-08-28T00:41:04.885Z,19.00
2022-08-28T00:46:16.080Z,17.40
2022-08-28T00:51:42.966Z,23.60
2022-08-28T00:56:52.392Z,18.90
2022-08-28T01:02:01.444Z,19.00
2022-08-28T01:07:13.293Z,26.50
2022-08-28T01:12:23.862Z,23.40
2022-08-28T01:17:35.053Z,22.80
2022-08-28T01:22:48.532Z,24.90
2022-08-28T01:27:56.706Z,25.40
2022-08-28T01:33:04.726Z,21.60
2022-08-28T01:38:12.948Z,27.20
2022-08-28T01:43:31.757Z,24.00
2022-08-28T01:48:43.332Z,22.50
2022-08-28T01:53:51.392Z,28.00
2022-08-28T01:58:59.549Z,24.50
2022-08-28T02:04:08.458Z,28.70
2022-08-28T02:09:16.969Z,25.70
2022-08-28T02:14:25.269Z,25.90
2022-08-28T02:19:33.252Z,21.80
2022-08-28T02:24:41.951Z,26.70
2022-08-28T02:29:50.320Z,20.30
2022-08-28T02:34:58.236Z,22.60
2022-08-28T02:40:08.512Z,24.70
2022-08-28T02:45:18.157Z,27.70
2022-08-28T02:50:27.195Z,20.20
2022-08-28T02:55:35.351Z,24.10
2022-08-28T03:00:43.872Z,19.90
2022-08-28T03:05:51.974Z,20.20
2022-08-28T03:11:00.530Z,19.70
2022-08-28T03:16:10.085Z,24.20
2022-08-28T03:21:18.366Z,23.40
2022-08-28T03:26:26.721Z,25.30
2022-08-28T03:31:36.261Z,24.50
2022-08-28T03:36:44.602Z,21.00
2022-08-28T03:41:52.978Z,19.10
2022-08-28T03:47:01.244Z,26.30
2022-08-28T03:52:09.677Z,21.10
2022-08-28T03:57:20.810Z,29.70
2022-08-28T04:02:28.980Z,24.70
2022-08-28T04:07:37.040Z,23.20
2022-08-28T04:12:45.489Z,23.20
2022-08-28T04:17:53.677Z,23.90
2022-08-28T04:23:04.460Z,27.10
2022-08-28T04:28:12.793Z,23.50
2022-08-28T04:33:20.832Z,23.10
2022-08-28T04:38:29.322Z,25.20
2022-08-28T04:43:37.976Z,21.30
2022-08-28T04:48:46.343Z,20.50
2022-08-28T04:53:54.648Z,26.20
2022-08-28T04:59:04.560Z,26.00
2022-08-28T05:04:13.590Z,17.80
2022-08-28T05:09:23.230Z,22.60
2022-08-28T05:14:31.674Z,19.00
2022-08-28T05:19:40.007Z,18.30
2022-08-28T05:24:48.204Z,15.90
2022-08-28T05:30:01.234Z,17.20
2022-08-28T05:35:12.921Z,17.70
2022-08-28T05:40:22.622Z,16.40
2022-08-28T05:45:30.813Z,19.30
2022-08-28T05:50:47.142Z,20.50
2022-08-28T05:55:56.798Z,16.40
2022-08-28T06:01:14.708Z,15.10
2022-08-28T06:06:25.206Z,15.90
2022-08-28T06:11:34.453Z,19.60
2022-08-28T06:16:45.177Z,15.00
2022-08-28T06:21:56.887Z,16.00
2022-08-28T06:32:11.563Z,15.60
2022-08-28T06:37:18.725Z,17.50
2022-08-28T06:42:28.666Z,13.20
2022-08-28T06:47:36.574Z,15.20
2022-08-28T06:52:44.408Z,14.70
2022-08-28T06:57:52.571Z,15.50
2022-08-28T07:03:00.524Z,16.00
2022-08-28T07:08:08.928Z,13.80
2022-08-28T07:13:16.935Z,13.30
2022-08-28T07:18:24.280Z,11.60
2022-08-28T07:23:34.155Z,17.90
2022-08-28T07:28:42.346Z,12.50
2022-08-28T07:33:54.220Z,16.90
2022-08-28T07:39:03.986Z,12.70
2022-08-28T07:44:30.897Z,15.30
2022-08-28T07:49:40.557Z,11.70
2022-08-28T07:54:49.479Z,17.80
2022-08-28T07:59:57.729Z,11.20
2022-08-28T08:05:06.321Z,10.50
2022-08-28T08:10:20.531Z,11.60
2022-08-28T08:15:31.413Z,15.40
2022-08-28T08:20:39.953Z,14.00
2022-08-28T08:25:57.991Z,11.00
2022-08-28T08:31:11.141Z,10.70
2022-08-28T08:36:22.548Z,12.90
2022-08-28T08:41:40.864Z,10.20
2022-08-28T08:46:57.805Z,12.50
2022-08-28T08:52:28.661Z,13.90
2022-08-28T08:57:38.506Z,14.90
2022-08-28T09:02:52.144Z,13.00
2022-08-28T09:08:05.015Z,13.90
2022-08-28T09:13:23.438Z,13.70
2022-08-28T09:18:35.770Z,9.10
2022-08-28T09:23:46.926Z,12.80
2022-08-28T09:29:05.695Z,12.30
2022-08-28T09:34:30.459Z,11.60
2022-08-28T09:39:39.622Z,10.20
2022-08-28T09:45:00.349Z,11.30
2022-08-28T09:55:38.395Z,11.40
2022-08-28T10:00:52.817Z,11.10
2022-08-28T10:06:11.535Z,13.30
2022-08-28T10:11:27.150Z,8.50
2022-08-28T10:16:48.655Z,13.50
2022-08-28T10:22:08.319Z,12.50
2022-08-28T10:27:29.387Z,12.60
2022-08-28T10:32:56.364Z,13.40
2022-08-28T10:38:12.772Z,16.80
2022-08-28T10:43:26.025Z,14.80
2022-08-28T10:48:45.199Z,16.90
2022-08-28T10:53:57.588Z,12.50
2022-08-28T10:59:05.707Z,12.60
2022-08-28T11:04:24.852Z,11.00
2022-08-28T11:09:37.521Z,12.00
2022-08-28T11:14:48.466Z,16.00
2022-08-28T11:20:16.108Z,10.10
2022-08-28T11:25:32.498Z,12.50
2022-08-28T11:30:41.202Z,10.20
2022-08-28T11:35:56.786Z,9.40
2022-08-28T11:41:16.292Z,8.10
2022-08-28T11:46:35.685Z,16.00
2022-08-28T11:52:05.843Z,13.50
2022-08-28T11:57:19.987Z,9.90
2022-08-28T12:02:51.416Z,8.40
2022-08-28T12:08:00.884Z,7.50
2022-08-28T12:13:10.571Z,10.40
2022-08-28T12:18:55.849Z,11.90
2022-08-28T12:24:18.023Z,12.90
2022-08-28T12:29:36.595Z,9.70
2022-08-28T12:34:50.326Z,10.60
2022-08-28T12:40:01.703Z,12.50
2022-08-28T12:45:18.308Z,16.50
2022-08-28T12:50:31.195Z,12.50
2022-08-28T12:55:41.603Z,11.10
2022-08-28T13:00:58.616Z,11.10
2022-08-28T13:06:09.628Z,8.80
2022-08-28T13:11:21.928Z,10.10
2022-08-28T13:16:49.140Z,12.90
2022-08-28T13:22:01.075Z,15.90
2022-08-28T13:27:18.825Z,11.30
2022-08-28T13:32:27.503Z,12.00
2022-08-28T13:37:50.847Z,12.40
2022-08-28T13:43:03.320Z,9.60
2022-08-28T13:48:12.084Z,12.60
2022-08-28T13:53:22.157Z,10.70
2022-08-28T14:03:38.277Z,18.00
2022-08-28T14:08:47.413Z,10.70
2022-08-28T14:13:56.058Z,14.80
2022-08-28T14:19:06.360Z,17.60
2022-08-28T14:24:14.916Z,11.40
2022-08-28T14:29:23.474Z,11.70
2022-08-28T14:34:31.821Z,12.90
2022-08-28T14:39:39.958Z,11.80
2022-08-28T14:44:50.541Z,9.40
2022-08-28T14:49:58.918Z,10.60
2022-08-28T14:55:07.773Z,13.40
2022-08-28T15:00:20.692Z,9.70
2022-08-28T15:05:29.120Z,10.30
2022-08-28T15:10:39.083Z,9.30
2022-08-28T15:15:47.273Z,12.40
2022-08-28T15:20:55.663Z,9.40
2022-08-28T15:26:03.649Z,11.60
2022-08-28T15:31:11.770Z,9.70
2022-08-28T15:36:19.547Z,16.60
2022-08-28T15:41:27.512Z,10.20
2022-08-28T15:46:39.900Z,10.80
2022-08-28T15:51:53.506Z,11.90
2022-08-28T15:57:01.798Z,10.40
2022-08-28T16:02:12.677Z,12.90
2022-08-28T16:07:21.619Z,14.80
2022-08-28T16:12:28.890Z,8.90
2022-08-28T16:17:36.360Z,10.60
2022-08-28T16:22:44.682Z,11.20
2022-08-28T16:27:52.400Z,11.90
2022-08-28T16:33:01.177Z,17.50
2022-08-28T16:38:08.892Z,11.30
2022-08-28T16:43:17.003Z,17.70
2022-08-28T16:48:25.593Z,15.00
2022-08-28T16:53:32.864Z,12.90
2022-08-28T16:58:41.438Z,15.30
2022-08-28T17:03:48.714Z,16.30
2022-08-28T17:08:58.791Z,11.70
2022-08-28T17:14:08.177Z,18.30
2022-08-28T17:19:17.164Z,13.30
2022-08-28T17:24:26.337Z,15.70
2022-08-28T17:29:34.325Z,16.90
2022-08-28T17:34:42.150Z,15.90
2022-08-28T17:39:50.383Z,12.50
2022-08-28T17:44:57.963Z,22.50
2022-08-28T17:50:07.500Z,23.30
2022-08-28T17:55:15.799Z,24.90
2022-08-28T18:00:24.305Z,15.20
2022-08-28T18:05:32.025Z,18.00
2022-08-28T18:10:40.054Z,20.80
2022-08-28T18:15:50.973Z,12.10
2022-08-28T18:21:04.544Z,16.00
2022-08-28T18:26:12.638Z,13.30
2022-08-28T18:31:20.635Z,15.90
2022-08-28T18:36:28.850Z,15.00
2022-08-28T18:41:43.537Z,12.10
2022-08-28T18:46:52.096Z,13.90
2022-08-28T18:51:59.851Z,19.70
2022-08-28T18:57:08.208Z,17.00
2022-08-28T19:02:19.565Z,19.50
2022-08-28T19:07:28.013Z,17.20
2022-08-28T19:12:36.530Z,20.60
2022-08-28T19:17:44.612Z,18.80
2022-08-28T19:22:52.352Z,19.30
2022-08-28T19:28:01.790Z,18.80
2022-08-28T19:33:13.000Z,24.80
2022-08-28T19:38:21.138Z,21.10
2022-08-28T19:43:31.133Z,18.10
2022-08-28T19:48:52.289Z,18.90
2022-08-28T19:54:00.694Z,20.80
2022-08-28T19:59:09.346Z,23.30
2022-08-28T20:04:18.407Z,19.60
2022-08-28T20:09:26.189Z,22.20
2022-08-28T20:14:34.989Z,19.60
2022-08-28T20:19:43.480Z,24.30
2022-08-28T20:24:50.961Z,25.40
2022-08-28T20:29:58.922Z,25.70
2022-08-28T20:35:19.024Z,24.90
2022-08-28T20:40:29.661Z,21.10
2022-08-28T20:45:37.135Z,26.80
2022-08-28T20:50:44.581Z,23.00
2022-08-28T20:55:52.156Z,25.20
2022-08-28T21:01:00.108Z,22.50
2022-08-28T21:06:09.180Z,28.30
2022-08-28T21:11:16.584Z,21.70
2022-08-28T21:16:24.701Z,25.00
2022-08-28T21:21:32.915Z,25.70
2022-08-28T21:26:42.664Z,21.20
2022-08-28T21:31:53.820Z,28.50
2022-08-28T21:37:01.254Z,24.70
2022-08-28T21:42:09.972Z,26.10
2022-08-28T21:47:17.434Z,31.50
2022-08-28T21:52:28.273Z,24.20
2022-08-28T21:57:36.373Z,25.90
2022-08-28T22:02:43.744Z,24.40
2022-08-28T22:07:51.343Z,26.80
2022-08-28T22:12:59.092Z,30.50
2022-08-28T22:18:06.996Z,27.60
2022-08-28T22:23:14.753Z,26.80
2022-08-28T22:28:23.191Z,34.40
2022-08-28T22:33:31.354Z,35.00
2022-08-28T22:38:39.709Z,31.20
2022-08-28T22:43:47.888Z,28.00
2022-08-28T22:48:57.801Z,35.30
2022-08-28T22:54:05.849Z,29.70
2022-08-28T22:59:13.364Z,32.40
2022-08-28T23:04:20.662Z,24.80
2022-08-28T23:09:28.234Z,24.70
2022-08-28T23:14:36.092Z,26.00
2022-08-28T23:19:43.739Z,27.30
2022-08-28T23:24:54.361Z,28.80
2022-08-28T23:30:02.387Z,26.30
2022-08-28T23:35:12.827Z,27.20
2022-08-28T23:40:22.759Z,25.10
2022-08-28T23:45:30.142Z,25.20
2022-08-28T23:50:38.064Z,27.70
2022-08-28T23:55:45.298Z,25.50
